Time;durP1;ratioP1;P1;durP2;ratioP2;P2;SDS_P1;SDS_P2;PMS_P1;PMS_P2;Temp;Humidity;BMP_temperature;BMP_pressure;BME280_temperature;BME280_humidity;BME280_pressure;Samples;Min_cycle;Max_cycle;Signal;HPM_P1;HPM_P2
2022/06/12 03:01:48;;;;;;;0.80;0.70;;;19.90;71.60;;;;;;5657743;23;20495;-74
2022/06/12 03:04:24;;;;;;;0.70;0.70;;;19.90;72.00;;;;;;5015683;28;20482;-75
2022/06/12 03:06:51;;;;;;;0.80;0.70;;;19.90;72.20;;;;;;5015569;28;20522;-74
2022/06/12 03:09:18;;;;;;;0.80;0.70;;;19.90;72.40;;;;;;5015562;28;20570;-75
2022/06/12 03:11:48;;;;;;;0.70;0.60;;;19.80;72.60;;;;;;5015423;28;20523;-75
2022/06/12 03:14:19;;;;;;;0.80;0.70;;;19.80;72.70;;;;;;5016797;28;20483;-74
2022/06/12 03:16:48;;;;;;;0.80;0.70;;;19.80;72.60;;;;;;5015442;28;20432;-75
2022/06/12 03:19:18;;;;;;;0.70;0.70;;;19.80;72.50;;;;;;5015380;28;20514;-75
2022/06/12 03:21:55;;;;;;;0.70;0.60;;;19.80;72.50;;;;;;5015173;28;20464;-74
2022/06/12 03:24:34;;;;;;;0.90;0.90;;;19.80;72.90;;;;;;5014990;28;20919;-74
2022/06/12 03:27:19;;;;;;;0.80;0.80;;;19.70;73.00;;;;;;5015192;28;20464;-75
2022/06/12 03:29:53;;;;;;;0.80;0.70;;;19.70;72.90;;;;;;5015186;28;20464;-75
2022/06/12 03:32:26;;;;;;;0.80;0.77;;;19.70;73.00;;;;;;5015037;28;20467;-74
2022/06/12 03:35:01;;;;;;;0.70;0.70;;;19.70;72.90;;;;;;5014850;28;20856;-75
2022/06/12 03:37:33;;;;;;;0.87;0.80;;;19.70;72.90;;;;;;5015065;28;20436;-74
2022/06/12 03:40:08;;;;;;;0.87;0.87;;;19.70;72.80;;;;;;5014974;28;20433;-75
2022/06/12 03:42:40;;;;;;;0.70;0.70;;;19.70;72.70;;;;;;5015915;28;20546;-75
2022/06/12 03:45:12;;;;;;;0.70;0.70;;;19.70;72.60;;;;;;5014602;28;20912;-75
2022/06/12 03:47:48;;;;;;;1.53;0.77;;;19.70;72.60;;;;;;5014804;28;20491;-74
2022/06/12 03:50:21;;;;;;;0.70;0.70;;;19.70;72.40;;;;;;5014859;28;20425;-74
2022/06/12 03:52:54;;;;;;;0.70;0.70;;;19.70;72.30;;;;;;5014777;28;20625;-74
2022/06/12 03:58:22;;;;;;;0.80;0.70;;;19.60;72.30;;;;;;4981021;28;20518;-74
2022/06/12 04:00:52;;;;;;;0.80;0.70;;;19.50;72.50;;;;;;5018304;28;20460;-74
2022/06/12 04:03:29;;;;;;;0.70;0.67;;;19.40;72.60;;;;;;5020028;28;20507;-75
2022/06/12 04:05:59;;;;;;;0.70;0.70;;;19.50;72.60;;;;;;5014428;28;20468;-75
2022/06/12 04:08:28;;;;;;;0.80;0.80;;;19.50;72.60;;;;;;5014448;28;20476;-74
2022/06/12 04:10:57;;;;;;;0.80;0.70;;;19.50;72.50;;;;;;5014055;28;20530;-74
2022/06/12 04:13:24;;;;;;;0.77;0.70;;;19.50;72.50;;;;;;5014339;28;20452;-75
2022/06/12 04:15:55;;;;;;;0.80;0.70;;;19.50;72.60;;;;;;5014291;28;20448;-74
2022/06/12 04:18:25;;;;;;;0.73;0.73;;;19.50;72.60;;;;;;5014559;28;20464;-74
2022/06/12 04:20:56;;;;;;;0.70;0.70;;;19.60;72.50;;;;;;5014152;28;20518;-74
2022/06/12 04:23:31;;;;;;;0.70;0.60;;;19.60;72.50;;;;;;5013883;28;20884;-75
2022/06/12 04:26:02;;;;;;;0.90;0.80;;;19.70;72.50;;;;;;5014105;28;20468;-74
2022/06/12 04:28:32;;;;;;;0.70;0.70;;;19.60;72.70;;;;;;5014123;28;20483;-74
2022/06/12 04:31:01;;;;;;;1.00;1.00;;;19.60;72.90;;;;;;5014026;28;20515;-74
2022/06/12 04:33:50;;;;;;;0.70;0.70;;;19.60;73.00;;;;;;5013632;28;20452;-74
2022/06/12 04:36:17;;;;;;;1.27;0.70;;;19.70;73.00;;;;;;5013967;28;20424;-74
2022/06/12 04:38:44;;;;;;;0.80;0.80;;;19.80;73.10;;;;;;5013938;28;20448;-75
2022/06/12 04:41:19;;;;;;;0.80;0.80;;;19.80;73.00;;;;;;5013825;28;20511;-75
2022/06/12 04:43:46;;;;;;;0.80;0.80;;;19.80;73.40;;;;;;5013586;28;20857;-75
2022/06/12 04:46:12;;;;;;;0.70;0.67;;;19.80;73.50;;;;;;5013759;28;20479;-74
2022/06/12 04:48:43;;;;;;;0.80;0.80;;;19.90;73.50;;;;;;5013791;28;20452;-74
2022/06/12 04:51:11;;;;;;;0.70;0.70;;;20.00;73.30;;;;;;5013719;28;20499;-74
2022/06/12 04:53:39;;;;;;;0.70;0.70;;;20.10;73.40;;;;;;5013808;28;20510;-75
2022/06/12 04:56:06;;;;;;;0.80;0.77;;;20.20;72.90;;;;;;5013767;28;20448;-75
2022/06/12 04:58:33;;;;;;;0.80;0.70;;;20.30;72.70;;;;;;5013718;28;20563;-75
2022/06/12 05:01:00;;;;;;;0.90;0.70;;;20.40;72.90;;;;;;5013471;28;20484;-75
2022/06/12 05:03:27;;;;;;;0.80;0.70;;;20.50;72.60;;;;;;5013418;28;20890;-75
2022/06/12 05:05:55;;;;;;;0.80;0.80;;;20.50;73.00;;;;;;5013556;28;20476;-75
2022/06/12 05:08:22;;;;;;;0.80;0.80;;;20.60;72.70;;;;;;5013588;28;20505;-75
2022/06/12 05:10:49;;;;;;;0.80;0.80;;;20.80;72.30;;;;;;5013213;28;20983;-75
2022/06/12 05:13:16;;;;;;;0.87;0.77;;;21.00;71.90;;;;;;5013529;28;20448;-75
2022/06/12 05:15:44;;;;;;;0.70;0.70;;;21.20;71.40;;;;;;5013530;28;20452;-75
2022/06/12 05:18:13;;;;;;;0.93;0.83;;;21.30;71.40;;;;;;5013553;28;20448;-75
2022/06/12 05:20:40;;;;;;;1.97;0.70;;;21.40;72.10;;;;;;5013412;28;20526;-73
2022/06/12 05:23:09;;;;;;;0.80;0.70;;;21.50;71.00;;;;;;5013447;28;20451;-75
2022/06/12 05:25:36;;;;;;;0.70;0.60;;;21.70;70.60;;;;;;5013434;28;20459;-75
2022/06/12 05:28:04;;;;;;;0.90;0.90;;;21.70;70.70;;;;;;5013117;28;21022;-75
2022/06/12 05:30:34;;;;;;;0.70;0.70;;;21.70;71.30;;;;;;5013355;28;20440;-75
2022/06/12 05:33:02;;;;;;;1.07;0.73;;;21.90;70.90;;;;;;5013346;28;20444;-75
2022/06/12 05:35:30;;;;;;;0.80;0.70;;;22.10;70.60;;;;;;5013333;28;20448;-74
2022/06/12 05:37:58;;;;;;;0.80;0.70;;;22.20;70.40;;;;;;5013287;28;20518;-75
2022/06/12 05:40:35;;;;;;;0.80;0.73;;;22.20;70.90;;;;;;5012902;28;20506;-75
2022/06/12 05:43:02;;;;;;;0.70;0.67;;;22.10;71.60;;;;;;5013276;28;20494;-75
2022/06/12 05:45:31;;;;;;;0.80;0.70;;;22.10;72.00;;;;;;5013742;28;20491;-75
2022/06/12 05:48:01;;;;;;;0.80;0.80;;;22.30;72.20;;;;;;5016929;28;20479;-75
2022/06/12 05:50:30;;;;;;;0.80;0.70;;;22.40;71.30;;;;;;5017812;28;20487;-75
2022/06/12 05:52:58;;;;;;;0.90;0.80;;;22.50;71.00;;;;;;5016917;28;20481;-75
2022/06/12 05:55:26;;;;;;;0.80;0.63;;;22.70;71.40;;;;;;5016958;28;20448;-75
2022/06/12 05:57:53;;;;;;;0.80;0.80;;;22.90;70.60;;;;;;5016860;28;20792;-75
2022/06/12 06:00:23;;;;;;;0.70;0.60;;;23.00;70.60;;;;;;5016458;28;21000;-75
2022/06/12 06:02:49;;;;;;;0.70;0.60;;;23.00;70.60;;;;;;5016411;28;20468;-75
2022/06/12 06:05:16;;;;;;;0.80;0.80;;;23.00;69.40;;;;;;5016737;28;20443;-75
2022/06/12 06:07:43;;;;;;;0.90;0.80;;;22.60;70.00;;;;;;5016600;28;20480;-75
2022/06/12 06:10:14;;;;;;;0.70;0.70;;;22.80;70.40;;;;;;5016616;28;20475;-75
2022/06/12 06:12:42;;;;;;;0.80;0.80;;;22.80;70.70;;;;;;5016348;28;20510;-75
2022/06/12 06:15:11;;;;;;;0.70;0.60;;;22.80;69.20;;;;;;5016218;28;20942;-75
2022/06/12 06:17:38;;;;;;;0.70;0.70;;;22.80;70.50;;;;;;5016580;28;20527;-75
2022/06/12 06:20:05;;;;;;;0.80;0.77;;;23.10;69.40;;;;;;5016449;28;20448;-75
2022/06/12 06:22:32;;;;;;;0.77;0.70;;;23.40;69.80;;;;;;5016319;28;20503;-75
2022/06/12 06:24:59;;;;;;;0.80;0.80;;;23.50;68.30;;;;;;5016404;28;20857;-75
2022/06/12 06:27:26;;;;;;;0.77;0.70;;;23.30;68.80;;;;;;5016285;28;20480;-75
2022/06/12 06:29:54;;;;;;;0.70;0.70;;;23.20;68.70;;;;;;5016355;28;20452;-75
2022/06/12 06:32:21;;;;;;;0.70;0.67;;;23.20;68.90;;;;;;5016184;28;20527;-75
2022/06/12 06:34:47;;;;;;;0.80;0.67;;;23.60;68.30;;;;;;5016246;28;20448;-75
2022/06/12 06:37:16;;;;;;;0.80;0.70;;;23.80;68.40;;;;;;5016165;28;20451;-75
2022/06/12 06:39:42;;;;;;;0.70;0.63;;;24.10;68.50;;;;;;5015832;28;20939;-75
2022/06/12 06:42:11;;;;;;;0.70;0.60;;;24.30;66.90;;;;;;5016037;28;20882;-75
2022/06/12 06:47:23;;;;;;;0.70;0.70;;;24.60;66.90;;;;;;5016055;28;20570;-75
2022/06/12 06:49:50;;;;;;;0.70;0.63;;;24.70;66.00;;;;;;5015899;28;20452;-75
2022/06/12 06:52:17;;;;;;;0.73;0.63;;;24.40;66.70;;;;;;5015841;28;20460;-73
2022/06/12 06:54:44;;;;;;;0.70;0.60;;;24.50;66.90;;;;;;5015909;28;20448;-72
2022/06/12 06:57:11;;;;;;;0.70;0.70;;;24.50;67.30;;;;;;5015519;28;20813;-72
2022/06/12 06:59:38;;;;;;;0.80;0.80;;;24.50;66.70;;;;;;5015753;28;20453;-72
2022/06/12 07:02:06;;;;;;;0.70;0.60;;;24.60;68.00;;;;;;5015371;28;20480;-73
2022/06/12 07:04:34;;;;;;;1.10;0.70;;;24.70;66.70;;;;;;5015690;28;20452;-72
2022/06/12 07:07:01;;;;;;;1.47;0.60;;;24.70;66.20;;;;;;5015508;28;20526;-73
2022/06/12 07:09:27;;;;;;;0.80;0.70;;;24.80;67.00;;;;;;5015334;28;20444;-72
2022/06/12 07:11:54;;;;;;;0.70;0.60;;;25.10;67.20;;;;;;5015457;28;20472;-72
2022/06/12 07:14:21;;;;;;;0.90;0.80;;;24.80;66.00;;;;;;5015529;28;20444;-72
2022/06/12 07:16:48;;;;;;;0.80;0.70;;;25.10;66.40;;;;;;5015444;28;20502;-73
2022/06/12 07:19:14;;;;;;;0.70;0.60;;;25.50;66.60;;;;;;5015468;28;20448;-72
2022/06/12 07:21:42;;;;;;;0.70;0.60;;;25.80;63.90;;;;;;5015976;28;20975;-73
2022/06/12 07:24:11;;;;;;;0.80;0.60;;;26.00;62.50;;;;;;5015503;28;20448;-73
2022/06/12 07:26:41;;;;;;;0.70;0.60;;;26.30;61.20;;;;;;5015546;28;20476;-73
2022/06/12 07:29:08;;;;;;;0.73;0.60;;;26.50;60.40;;;;;;5015160;28;20444;-73
2022/06/12 07:31:35;;;;;;;0.90;0.70;;;26.70;58.30;;;;;;5015009;28;20546;-71
2022/06/12 07:34:03;;;;;;;0.90;0.70;;;26.80;58.20;;;;;;5015631;28;20444;-72
2022/06/12 07:36:30;;;;;;;0.70;0.60;;;26.80;59.20;;;;;;5014778;28;20997;-72
2022/06/12 07:38:58;;;;;;;0.70;0.60;;;27.20;59.80;;;;;;5015127;28;20807;-74
2022/06/12 07:41:25;;;;;;;0.70;0.63;;;27.50;58.40;;;;;;5014885;28;20468;-72
2022/06/12 07:43:52;;;;;;;1.00;0.60;;;27.70;57.60;;;;;;5014640;28;20849;-73
2022/06/12 07:46:19;;;;;;;0.80;0.60;;;27.90;55.70;;;;;;5014988;28;20800;-73
2022/06/12 07:48:48;;;;;;;0.90;0.60;;;28.10;55.80;;;;;;5014798;28;20453;-73
2022/06/12 07:51:18;;;;;;;0.90;0.70;;;28.30;55.50;;;;;;5014688;28;20468;-73
2022/06/12 07:53:47;;;;;;;0.80;0.63;;;28.50;54.90;;;;;;5014776;28;20515;-74
2022/06/12 07:56:15;;;;;;;0.70;0.50;;;28.70;53.10;;;;;;5014665;28;20448;-74
2022/06/12 07:58:43;;;;;;;0.70;0.60;;;28.80;52.10;;;;;;5014370;28;20475;-73
2022/06/12 08:01:11;;;;;;;0.70;0.70;;;29.00;52.50;;;;;;5014402;28;20542;-73
2022/06/12 08:03:38;;;;;;;0.70;0.70;;;29.00;53.00;;;;;;5014617;28;20440;-73
2022/06/12 08:06:06;;;;;;;0.70;0.60;;;28.70;54.40;;;;;;5014580;28;20502;-73
2022/06/12 08:08:32;;;;;;;0.77;0.60;;;28.50;54.60;;;;;;5013678;28;20480;-74
2022/06/12 08:11:01;;;;;;;0.80;0.60;;;28.30;54.80;;;;;;5014296;28;20857;-73
2022/06/12 08:13:30;;;;;;;0.70;0.70;;;28.50;53.30;;;;;;5014146;28;20940;-73
2022/06/12 08:15:58;;;;;;;0.70;0.60;;;28.50;53.30;;;;;;5014386;28;20503;-74
2022/06/12 08:18:25;;;;;;;0.70;0.70;;;28.40;54.10;;;;;;5014507;28;20440;-73
2022/06/12 08:20:56;;;;;;;0.90;0.60;;;28.40;54.70;;;;;;5014238;28;20480;-73
2022/06/12 08:23:29;;;;;;;0.70;0.70;;;28.50;53.90;;;;;;5014294;28;20490;-73
2022/06/12 08:26:01;;;;;;;0.70;0.60;;;28.40;52.50;;;;;;5014468;28;20432;-73
2022/06/12 08:28:34;;;;;;;0.93;0.60;;;28.40;52.90;;;;;;5014195;28;20539;-73
2022/06/12 08:31:01;;;;;;;0.70;0.70;;;28.60;52.60;;;;;;5014114;28;20530;-73
2022/06/12 08:33:28;;;;;;;0.70;0.60;;;28.40;52.20;;;;;;5014085;28;20503;-73
2022/06/12 08:35:55;;;;;;;0.80;0.63;;;28.30;51.80;;;;;;5013937;28;20444;-73
2022/06/12 08:38:22;;;;;;;0.70;0.60;;;27.80;52.20;;;;;;5013990;28;20499;-73
2022/06/12 08:40:54;;;;;;;0.70;0.60;;;27.90;52.80;;;;;;5013905;28;20526;-73
2022/06/12 08:43:31;;;;;;;0.70;0.60;;;27.70;53.40;;;;;;5013988;28;20523;-73
2022/06/12 08:46:05;;;;;;;1.00;0.70;;;27.40;52.80;;;;;;5013878;28;20432;-73
2022/06/12 08:48:41;;;;;;;0.87;0.70;;;27.20;54.20;;;;;;5013786;28;20550;-73
2022/06/12 08:51:13;;;;;;;0.80;0.70;;;27.40;55.00;;;;;;5013741;28;20483;-73
2022/06/12 08:53:45;;;;;;;0.70;0.60;;;27.60;56.00;;;;;;5013834;28;20476;-73
2022/06/12 08:56:15;;;;;;;0.70;0.60;;;28.00;54.50;;;;;;5013741;28;20479;-73
2022/06/12 08:58:47;;;;;;;0.70;0.60;;;27.90;53.20;;;;;;5013673;28;20460;-73
2022/06/12 09:01:15;;;;;;;0.70;0.60;;;27.90;53.50;;;;;;5013359;28;20562;-73
2022/06/12 09:03:45;;;;;;;0.70;0.60;;;27.60;53.50;;;;;;5013550;28;20507;-72
2022/06/12 09:06:21;;;;;;;1.90;0.60;;;27.40;54.40;;;;;;5013298;28;20911;-73
2022/06/12 09:08:52;;;;;;;0.80;0.60;;;27.40;54.00;;;;;;5013549;28;20559;-73
2022/06/12 09:11:24;;;;;;;0.70;0.60;;;27.70;56.00;;;;;;5013565;28;20471;-73
2022/06/12 09:13:58;;;;;;;0.77;0.67;;;28.20;53.30;;;;;;5035114;23;20544;-74
2022/06/12 09:16:35;;;;;;;0.70;0.60;;;28.30;55.00;;;;;;4994056;28;20449;-75
2022/06/12 09:19:11;;;;;;;0.70;0.60;;;28.40;54.50;;;;;;4994016;28;20426;-73
2022/06/12 09:21:50;;;;;;;0.70;0.60;;;28.60;55.20;;;;;;4997691;28;20904;-74
2022/06/12 09:24:27;;;;;;;0.90;0.60;;;28.80;54.70;;;;;;4998037;28;20469;-75
2022/06/12 09:27:03;;;;;;;1.27;0.70;;;28.30;53.40;;;;;;4997909;28;20439;-75
2022/06/12 09:29:43;;;;;;;0.83;0.70;;;28.30;56.20;;;;;;4997974;28;20429;-75
2022/06/12 09:32:20;;;;;;;0.80;0.70;;;28.10;53.80;;;;;;4997774;28;20433;-75
2022/06/12 09:34:58;;;;;;;0.80;0.70;;;28.10;56.30;;;;;;4997383;28;20991;-75
2022/06/12 09:40:29;;;;;;;0.80;0.70;;;27.90;55.30;;;;;;4997732;28;20473;-74
2022/06/12 09:43:03;;;;;;;0.70;0.63;;;28.20;55.80;;;;;;4997625;28;20433;-75
2022/06/12 09:45:42;;;;;;;0.70;0.60;;;28.10;54.80;;;;;;4997162;28;20980;-75
2022/06/12 09:48:20;;;;;;;0.80;0.70;;;28.10;55.70;;;;;;4997457;28;20539;-74
2022/06/12 09:50:58;;;;;;;0.90;0.70;;;28.40;54.30;;;;;;4997170;28;20433;-74
2022/06/12 09:53:41;;;;;;;0.70;0.70;;;28.80;55.00;;;;;;4997243;28;20433;-74
2022/06/12 09:56:16;;;;;;;0.70;0.60;;;29.10;56.90;;;;;;4997359;28;20436;-75
2022/06/12 09:58:48;;;;;;;0.70;0.60;;;29.30;52.40;;;;;;4997230;28;20438;-75
2022/06/12 10:01:21;;;;;;;0.70;0.70;;;29.20;52.80;;;;;;4997118;28;20438;-75
2022/06/12 10:03:55;;;;;;;0.70;0.60;;;29.30;52.50;;;;;;4997250;28;20527;-75
2022/06/12 10:06:28;;;;;;;0.70;0.60;;;29.60;51.10;;;;;;4997137;28;20429;-75
2022/06/12 10:09:02;;;;;;;0.70;0.60;;;29.40;51.10;;;;;;4997004;28;20532;-75
2022/06/12 10:11:34;;;;;;;0.70;0.60;;;29.00;52.10;;;;;;4997089;28;20425;-75
2022/06/12 10:14:05;;;;;;;0.70;0.70;;;28.70;52.50;;;;;;4996813;28;20892;-75
2022/06/12 10:16:37;;;;;;;0.90;0.70;;;29.00;53.90;;;;;;4997046;28;20524;-74
2022/06/12 10:19:11;;;;;;;0.80;0.70;;;29.20;53.40;;;;;;4996654;28;20429;-74
2022/06/12 10:21:42;;;;;;;0.70;0.70;;;29.40;51.40;;;;;;4996604;28;20901;-75
2022/06/12 10:24:11;;;;;;;1.30;0.60;;;29.40;51.30;;;;;;4996756;28;20890;-75
2022/06/12 10:26:39;;;;;;;0.77;0.70;;;29.40;51.40;;;;;;4996790;28;20456;-75
2022/06/12 10:29:09;;;;;;;0.70;0.60;;;29.40;52.30;;;;;;4996846;28;20492;-75
2022/06/12 10:31:46;;;;;;;1.00;0.80;;;29.30;51.80;;;;;;4996245;28;20909;-74
2022/06/12 10:34:19;;;;;;;0.73;0.67;;;29.40;52.80;;;;;;4996169;28;20468;-75
2022/06/12 10:36:46;;;;;;;0.77;0.67;;;29.40;50.90;;;;;;4996679;28;20497;-74
2022/06/12 10:39:21;;;;;;;0.80;0.70;;;29.30;52.80;;;;;;4996611;28;20449;-74
2022/06/12 10:41:50;;;;;;;0.80;0.70;;;29.40;53.80;;;;;;4996322;28;20947;-75
2022/06/12 10:44:36;;;;;;;0.80;0.70;;;29.60;53.00;;;;;;4996068;28;21002;-75
2022/06/12 10:47:18;;;;;;;1.00;0.80;;;29.70;53.80;;;;;;4996514;28;20484;-75
2022/06/12 10:49:47;;;;;;;0.80;0.60;;;29.50;50.30;;;;;;4996437;28;20542;-75
2022/06/12 10:52:18;;;;;;;0.70;0.70;;;29.20;53.90;;;;;;4996027;28;20862;-75
2022/06/12 10:54:45;;;;;;;0.90;0.70;;;29.40;52.60;;;;;;4996548;28;20467;-75
2022/06/12 10:57:30;;;;;;;0.70;0.60;;;29.40;52.80;;;;;;4996004;28;20453;-75
2022/06/12 11:00:02;;;;;;;2.10;0.70;;;29.00;54.10;;;;;;4996073;28;20480;-75
2022/06/12 11:02:43;;;;;;;0.70;0.60;;;29.30;52.00;;;;;;4995953;28;20422;-75
2022/06/12 11:05:31;;;;;;;1.07;0.67;;;29.80;50.50;;;;;;4996018;28;20527;-75
2022/06/12 11:08:10;;;;;;;0.70;0.60;;;30.30;51.10;;;;;;4995889;28;20469;-74
2022/06/12 11:10:44;;;;;;;0.70;0.70;;;30.50;50.00;;;;;;4995950;28;20437;-74
2022/06/12 11:13:25;;;;;;;1.20;0.60;;;30.70;48.50;;;;;;4995966;28;20469;-74
2022/06/12 11:16:06;;;;;;;0.80;0.60;;;30.80;49.10;;;;;;4995555;28;20515;-75
2022/06/12 11:18:47;;;;;;;0.77;0.67;;;30.80;49.30;;;;;;4996004;28;20500;-75
2022/06/12 11:21:24;;;;;;;0.80;0.60;;;30.90;48.70;;;;;;4995896;28;20433;-75
2022/06/12 11:24:11;;;;;;;0.63;0.60;;;30.80;49.70;;;;;;4995244;28;20461;-75
2022/06/12 11:26:50;;;;;;;0.80;0.70;;;30.40;48.70;;;;;;4995574;28;20433;-74
2022/06/12 11:29:36;;;;;;;0.70;0.60;;;30.10;48.80;;;;;;4995405;28;20804;-75
2022/06/12 11:32:15;;;;;;;0.80;0.70;;;30.10;49.80;;;;;;4995473;28;20488;-75
2022/06/12 11:34:57;;;;;;;0.70;0.70;;;30.20;49.90;;;;;;4995068;28;20468;-75
2022/06/12 11:37:40;;;;;;;1.07;0.70;;;30.30;49.10;;;;;;4995334;28;20441;-75
2022/06/12 11:40:15;;;;;;;0.70;0.60;;;30.50;50.90;;;;;;4995374;28;20455;-75
2022/06/12 11:42:55;;;;;;;0.80;0.80;;;30.90;50.70;;;;;;4994775;28;20433;-75
2022/06/12 11:45:35;;;;;;;0.70;0.70;;;31.10;49.50;;;;;;4994940;28;20464;-75
2022/06/12 11:48:12;;;;;;;0.70;0.60;;;31.10;48.70;;;;;;4995057;28;20469;-74
2022/06/12 11:50:46;;;;;;;0.70;0.67;;;31.00;48.80;;;;;;4995075;28;20433;-74
2022/06/12 11:53:30;;;;;;;0.70;0.70;;;31.00;47.50;;;;;;4994968;28;20429;-74
2022/06/12 11:56:00;;;;;;;0.70;0.60;;;31.10;48.40;;;;;;4995065;28;20449;-74
2022/06/12 11:58:49;;;;;;;0.70;0.70;;;31.10;49.80;;;;;;4995035;28;20488;-74
2022/06/12 12:01:26;;;;;;;0.70;0.70;;;31.10;49.20;;;;;;4994917;28;20434;-75
2022/06/12 12:04:16;;;;;;;0.70;0.60;;;31.10;48.20;;;;;;4994882;28;20469;-75
2022/06/12 12:06:58;;;;;;;0.70;0.60;;;31.00;49.70;;;;;;4992258;28;20837;-75
2022/06/12 12:09:39;;;;;;;0.70;0.60;;;31.30;49.20;;;;;;4994704;28;20472;-75
2022/06/12 12:12:10;;;;;;;0.90;0.70;;;31.50;46.40;;;;;;4994482;28;20881;-74
2022/06/12 12:14:42;;;;;;;0.80;0.70;;;31.80;48.10;;;;;;4994268;28;20493;-74
2022/06/12 12:17:14;;;;;;;0.70;0.60;;;31.90;46.70;;;;;;4994621;28;20488;-75
2022/06/12 12:19:45;;;;;;;0.70;0.60;;;31.90;47.00;;;;;;4994631;28;20434;-74
2022/06/12 12:22:18;;;;;;;0.90;0.70;;;31.60;47.60;;;;;;4994992;28;20444;-74
2022/06/12 12:25:00;;;;;;;0.70;0.60;;;31.50;47.10;;;;;;4994377;28;20540;-75
2022/06/12 12:27:32;;;;;;;0.70;0.60;;;31.50;46.40;;;;;;4994446;28;20492;-75
2022/06/12 12:30:00;;;;;;;0.90;0.70;;;31.60;46.90;;;;;;4994271;28;20469;-75
2022/06/12 12:32:28;;;;;;;0.70;0.60;;;31.60;47.40;;;;;;4994429;28;20499;-75
2022/06/12 12:34:57;;;;;;;0.73;0.70;;;31.60;47.20;;;;;;4994249;28;20522;-75
2022/06/12 12:43:16;;;;;;;0.70;0.60;;;31.40;47.40;;;;;;4994460;28;20409;-75
2022/06/12 12:45:43;;;;;;;0.70;0.60;;;31.60;48.40;;;;;;4993628;28;21047;-75
2022/06/12 12:48:13;;;;;;;0.93;0.60;;;31.80;46.90;;;;;;4993914;28;20455;-75
2022/06/12 12:50:46;;;;;;;0.70;0.60;;;31.90;49.30;;;;;;4993958;28;20449;-74
2022/06/12 12:53:21;;;;;;;0.80;0.80;;;32.20;45.90;;;;;;4994100;28;20429;-75
2022/06/12 12:55:59;;;;;;;0.70;0.60;;;32.20;45.00;;;;;;4993449;28;20977;-75
2022/06/12 12:58:25;;;;;;;0.80;0.60;;;32.20;45.40;;;;;;4993990;28;20429;-75
2022/06/12 13:01:02;;;;;;;0.80;0.70;;;32.20;45.70;;;;;;4993790;28;20441;-75
2022/06/12 13:03:32;;;;;;;0.80;0.60;;;32.10;45.80;;;;;;4993785;28;20433;-75
2022/06/12 13:06:24;;;;;;;0.80;0.80;;;32.00;45.10;;;;;;4993387;28;20819;-75
2022/06/12 13:09:06;;;;;;;0.70;0.60;;;32.00;45.60;;;;;;4993688;28;20469;-75
2022/06/12 13:11:45;;;;;;;0.60;0.50;;;32.10;46.30;;;;;;4993297;28;20433;-75
2022/06/12 13:14:40;;;;;;;0.70;0.60;;;32.30;45.90;;;;;;4993072;28;20899;-75
2022/06/12 13:17:29;;;;;;;0.60;0.60;;;32.20;46.20;;;;;;4993711;28;20488;-74
2022/06/12 13:20:20;;;;;;;0.70;0.70;;;32.10;45.80;;;;;;4993488;28;20516;-75
2022/06/12 13:22:57;;;;;;;0.60;0.50;;;32.20;47.00;;;;;;4993626;28;20434;-75
2022/06/12 13:25:30;;;;;;;0.63;0.57;;;32.00;46.00;;;;;;4993294;28;20980;-75
2022/06/12 13:28:01;;;;;;;0.70;0.60;;;32.10;47.80;;;;;;4993765;28;20430;-74
2022/06/12 13:30:29;;;;;;;0.70;0.60;;;32.20;45.30;;;;;;4993980;28;20473;-73
2022/06/12 13:33:07;;;;;;;0.70;0.60;;;32.40;46.60;;;;;;4993727;28;20452;-74
2022/06/12 13:35:43;;;;;;;0.70;0.60;;;32.30;44.70;;;;;;4993745;28;20552;-75
2022/06/12 13:38:20;;;;;;;0.70;0.60;;;32.30;45.20;;;;;;4993516;28;20464;-75
2022/06/12 13:40:56;;;;;;;1.00;0.60;;;32.40;47.40;;;;;;4993572;28;20440;-75
2022/06/12 13:43:30;;;;;;;0.70;0.60;;;32.30;44.90;;;;;;4993512;28;20440;-76
2022/06/12 13:45:59;;;;;;;0.70;0.60;;;32.00;45.70;;;;;;4993591;28;20488;-75
2022/06/12 13:48:28;;;;;;;0.80;0.70;;;31.90;45.60;;;;;;4993536;28;20453;-75
2022/06/12 13:51:00;;;;;;;0.70;0.63;;;31.50;46.50;;;;;;4993218;28;20937;-75
2022/06/12 13:53:28;;;;;;;0.87;0.60;;;31.40;47.40;;;;;;4993594;28;20512;-76
2022/06/12 13:55:58;;;;;;;0.70;0.60;;;31.20;46.80;;;;;;4993565;28;20480;-75
2022/06/12 13:58:30;;;;;;;0.70;0.60;;;31.20;47.50;;;;;;4993492;28;20539;-75
2022/06/12 14:00:58;;;;;;;0.70;0.60;;;31.20;47.80;;;;;;4993123;28;20932;-75
2022/06/12 14:03:29;;;;;;;0.80;0.60;;;31.20;46.60;;;;;;4993334;28;20444;-75
2022/06/12 14:05:59;;;;;;;0.70;0.60;;;31.10;47.80;;;;;;4993991;28;20429;-75
2022/06/12 14:08:28;;;;;;;0.70;0.60;;;31.00;48.80;;;;;;4996692;28;20464;-75
2022/06/12 14:10:57;;;;;;;0.70;0.60;;;31.20;50.70;;;;;;4996965;28;20448;-75
2022/06/12 14:13:31;;;;;;;0.70;0.60;;;31.40;49.70;;;;;;4996510;28;20460;-76
2022/06/12 14:16:10;;;;;;;1.00;0.70;;;31.70;48.70;;;;;;4996999;28;20479;-75
2022/06/12 14:18:38;;;;;;;0.80;0.60;;;31.90;47.50;;;;;;4996712;28;20445;-75
2022/06/12 14:21:15;;;;;;;0.70;0.70;;;32.10;47.80;;;;;;4997138;28;20544;-75
2022/06/12 14:23:47;;;;;;;0.70;0.70;;;32.10;48.60;;;;;;4997192;28;20483;-76
2022/06/12 14:26:25;;;;;;;0.63;0.60;;;32.30;49.00;;;;;;4996989;28;20837;-76
2022/06/12 14:28:53;;;;;;;0.77;0.60;;;32.60;47.80;;;;;;4996788;28;20519;-76
2022/06/12 14:31:26;;;;;;;0.70;0.60;;;32.70;48.60;;;;;;4996720;28;20444;-75
2022/06/12 14:33:56;;;;;;;0.87;0.77;;;32.80;47.80;;;;;;4996312;28;20988;-75
2022/06/12 14:36:31;;;;;;;0.80;0.70;;;32.90;46.60;;;;;;4996499;28;20449;-75
2022/06/12 14:39:11;;;;;;;0.70;0.60;;;32.90;47.40;;;;;;4996574;28;20472;-76
2022/06/12 14:41:47;;;;;;;0.80;0.70;;;33.10;46.90;;;;;;4996410;28;20444;-76
2022/06/12 14:44:15;;;;;;;0.70;0.60;;;32.90;47.10;;;;;;4997311;28;20899;-76
2022/06/12 14:46:42;;;;;;;0.70;0.50;;;32.90;46.80;;;;;;4996644;28;20481;-76
2022/06/12 14:49:16;;;;;;;0.70;0.60;;;32.90;46.60;;;;;;4995934;28;21066;-76
2022/06/12 14:51:43;;;;;;;1.27;0.70;;;32.70;46.20;;;;;;4996955;28;20846;-76
2022/06/12 14:54:10;;;;;;;0.80;0.60;;;32.70;46.30;;;;;;4995851;28;20876;-76
2022/06/12 14:56:36;;;;;;;1.03;0.60;;;32.80;46.40;;;;;;4995972;28;20941;-76
2022/06/12 14:59:05;;;;;;;0.60;0.50;;;32.80;46.40;;;;;;4996154;28;20448;-76
2022/06/12 15:01:33;;;;;;;0.70;0.60;;;32.90;46.60;;;;;;4995739;28;20460;-76
2022/06/12 15:04:00;;;;;;;0.80;0.70;;;32.70;46.10;;;;;;4996058;28;20472;-76
2022/06/12 15:06:27;;;;;;;0.60;0.60;;;32.90;47.10;;;;;;4996072;28;20449;-76
2022/06/12 15:08:54;;;;;;;0.63;0.57;;;32.90;46.30;;;;;;4995834;28;20861;-75
2022/06/12 15:11:23;;;;;;;0.70;0.60;;;32.90;45.60;;;;;;4996021;28;20453;-76
2022/06/12 15:16:17;;;;;;;0.60;0.60;;;33.10;47.00;;;;;;5036723;23;20527;-75
2022/06/12 15:18:45;;;;;;;0.70;0.60;;;33.10;45.50;;;;;;5015187;28;20440;-74
2022/06/12 15:21:15;;;;;;;0.60;0.60;;;33.00;45.50;;;;;;5015378;28;20510;-75
2022/06/12 15:23:42;;;;;;;0.60;0.50;;;33.10;45.60;;;;;;5015370;28;20916;-74
2022/06/12 15:31:39;;;;;;;0.60;0.60;;;33.10;44.90;;;;;;5015055;28;20408;-74
2022/06/12 15:34:08;;;;;;;0.60;0.53;;;33.10;44.80;;;;;;5015031;28;20451;-74
2022/06/12 15:36:35;;;;;;;0.70;0.50;;;32.90;45.60;;;;;;5014712;28;21005;-73
2022/06/12 15:39:01;;;;;;;0.70;0.60;;;32.90;46.10;;;;;;5014674;28;20872;-74
2022/06/12 15:41:29;;;;;;;0.80;0.60;;;32.90;45.90;;;;;;5014678;28;20806;-74
2022/06/12 15:43:55;;;;;;;0.70;0.60;;;32.70;45.90;;;;;;5014830;28;20506;-74
2022/06/12 15:46:22;;;;;;;0.63;0.60;;;32.50;45.90;;;;;;5014855;28;20494;-74
2022/06/12 15:48:49;;;;;;;0.70;0.50;;;32.50;46.20;;;;;;5014840;28;20502;-74
2022/06/12 15:51:19;;;;;;;0.70;0.60;;;32.50;45.70;;;;;;5014788;28;20474;-74
2022/06/12 15:53:48;;;;;;;1.47;0.60;;;32.70;45.40;;;;;;5014825;28;20444;-74
2022/06/12 15:56:15;;;;;;;0.70;0.60;;;32.70;45.10;;;;;;5014351;28;21071;-74
2022/06/12 15:58:43;;;;;;;0.70;0.60;;;32.50;44.90;;;;;;5014668;28;20440;-74
2022/06/12 16:01:15;;;;;;;0.70;0.60;;;32.40;45.10;;;;;;5014621;28;20450;-73
2022/06/12 16:03:42;;;;;;;0.97;0.60;;;32.20;45.20;;;;;;5013570;28;20482;-73
2022/06/12 16:06:09;;;;;;;1.17;0.60;;;32.30;44.30;;;;;;5014471;28;20456;-73
2022/06/12 16:08:37;;;;;;;0.70;0.60;;;32.40;45.10;;;;;;5014172;28;20872;-73
2022/06/12 16:11:04;;;;;;;0.80;0.60;;;32.40;44.70;;;;;;5014381;28;20483;-73
2022/06/12 16:13:30;;;;;;;0.70;0.63;;;32.40;44.50;;;;;;5015244;28;20476;-74
2022/06/12 16:15:57;;;;;;;0.60;0.50;;;32.30;44.50;;;;;;5013911;28;20905;-75
2022/06/12 16:18:24;;;;;;;0.70;0.60;;;32.20;45.00;;;;;;5014403;28;20456;-75
2022/06/12 16:20:51;;;;;;;0.70;0.60;;;32.10;45.90;;;;;;5014332;28;20440;-75
2022/06/12 16:23:18;;;;;;;0.60;0.60;;;32.00;45.30;;;;;;5014258;28;20499;-75
2022/06/12 16:25:47;;;;;;;0.60;0.50;;;32.00;44.90;;;;;;5013837;28;21061;-74
2022/06/12 16:28:15;;;;;;;2.20;0.60;;;31.80;45.60;;;;;;5014221;28;20456;-71
2022/06/12 16:30:44;;;;;;;0.70;0.70;;;31.60;45.60;;;;;;5013528;28;20516;-71
2022/06/12 16:33:10;;;;;;;0.60;0.60;;;31.70;45.30;;;;;;5013786;28;20943;-71